sensor_id;sensor_type;location;lat;lon;timestamp;P1;durP1;ratioP1;P2;durP2;ratioP2
15474;SDS011;7839;50.462;9.678;2024-02-26T00:02:13;2.50;;;2.07;;
15474;SDS011;7839;50.462;9.678;2024-02-26T00:08:54;2.40;;;1.90;;
15474;SDS011;7839;50.462;9.678;2024-02-26T00:15:34;1.50;;;1.40;;
15474;SDS011;7839;50.462;9.678;2024-02-26T00:22:15;1.70;;;1.60;;
15474;SDS011;7839;50.462;9.678;2024-02-26T00:28:55;3.00;;;1.63;;
15474;SDS011;7839;50.462;9.678;2024-02-26T00:35:35;1.60;;;1.50;;
15474;SDS011;7839;50.462;9.678;2024-02-26T00:42:15;1.43;;;1.33;;
15474;SDS011;7839;50.462;9.678;2024-02-26T00:48:56;1.50;;;1.40;;
15474;SDS011;7839;50.462;9.678;2024-02-26T00:55:36;1.97;;;1.77;;
15474;SDS011;7839;50.462;9.678;2024-02-26T01:02:16;2.43;;;1.50;;
15474;SDS011;7839;50.462;9.678;2024-02-26T01:08:56;1.60;;;1.50;;
15474;SDS011;7839;50.462;9.678;2024-02-26T01:15:36;1.77;;;1.67;;
15474;SDS011;7839;50.462;9.678;2024-02-26T01:22:17;1.23;;;1.13;;
15474;SDS011;7839;50.462;9.678;2024-02-26T01:28:57;1.60;;;1.40;;
15474;SDS011;7839;50.462;9.678;2024-02-26T01:35:38;1.30;;;1.20;;
15474;SDS011;7839;50.462;9.678;2024-02-26T01:42:18;1.20;;;1.10;;
15474;SDS011;7839;50.462;9.678;2024-02-26T01:48:58;1.33;;;1.20;;
15474;SDS011;7839;50.462;9.678;2024-02-26T01:55:39;1.30;;;1.10;;
15474;SDS011;7839;50.462;9.678;2024-02-26T02:02:19;1.40;;;1.27;;
15474;SDS011;7839;50.462;9.678;2024-02-26T02:09:00;1.10;;;1.00;;
15474;SDS011;7839;50.462;9.678;2024-02-26T02:15:46;1.30;;;1.20;;
15474;SDS011;7839;50.462;9.678;2024-02-26T02:22:26;1.10;;;1.00;;
15474;SDS011;7839;50.462;9.678;2024-02-26T02:29:06;1.30;;;1.20;;
15474;SDS011;7839;50.462;9.678;2024-02-26T02:35:47;0.93;;;0.85;;
15474;SDS011;7839;50.462;9.678;2024-02-26T02:42:27;0.70;;;0.70;;
15474;SDS011;7839;50.462;9.678;2024-02-26T02:49:10;1.20;;;1.10;;
15474;SDS011;7839;50.462;9.678;2024-02-26T02:55:50;0.97;;;0.97;;
15474;SDS011;7839;50.462;9.678;2024-02-26T03:02:31;2.10;;;1.40;;
15474;SDS011;7839;50.462;9.678;2024-02-26T03:09:11;0.90;;;0.90;;
15474;SDS011;7839;50.462;9.678;2024-02-26T03:15:51;1.10;;;1.00;;
15474;SDS011;7839;50.462;9.678;2024-02-26T03:22:31;1.60;;;1.17;;
15474;SDS011;7839;50.462;9.678;2024-02-26T03:29:11;2.30;;;1.33;;
15474;SDS011;7839;50.462;9.678;2024-02-26T03:35:52;1.43;;;1.23;;
15474;SDS011;7839;50.462;9.678;2024-02-26T03:42:32;1.53;;;1.17;;
15474;SDS011;7839;50.462;9.678;2024-02-26T03:49:12;1.60;;;1.40;;
15474;SDS011;7839;50.462;9.678;2024-02-26T03:55:53;1.73;;;1.10;;
15474;SDS011;7839;50.462;9.678;2024-02-26T04:02:35;1.30;;;1.20;;
15474;SDS011;7839;50.462;9.678;2024-02-26T04:09:15;1.53;;;1.20;;
15474;SDS011;7839;50.462;9.678;2024-02-26T04:15:55;3.20;;;1.37;;
15474;SDS011;7839;50.462;9.678;2024-02-26T04:22:36;1.35;;;1.20;;
15474;SDS011;7839;50.462;9.678;2024-02-26T04:29:16;1.97;;;1.33;;
15474;SDS011;7839;50.462;9.678;2024-02-26T04:35:56;1.20;;;1.10;;
15474;SDS011;7839;50.462;9.678;2024-02-26T04:42:36;2.27;;;1.10;;
15474;SDS011;7839;50.462;9.678;2024-02-26T04:49:16;11.17;;;5.73;;
15474;SDS011;7839;50.462;9.678;2024-02-26T04:55:56;1.33;;;1.20;;
15474;SDS011;7839;50.462;9.678;2024-02-26T05:02:37;6.20;;;4.13;;
15474;SDS011;7839;50.462;9.678;2024-02-26T05:09:18;2.57;;;1.97;;
15474;SDS011;7839;50.462;9.678;2024-02-26T05:15:59;3.27;;;1.70;;
15474;SDS011;7839;50.462;9.678;2024-02-26T05:22:40;3.13;;;2.10;;
15474;SDS011;7839;50.462;9.678;2024-02-26T05:29:20;5.63;;;4.27;;
15474;SDS011;7839;50.462;9.678;2024-02-26T05:36:00;5.30;;;2.10;;
15474;SDS011;7839;50.462;9.678;2024-02-26T05:42:43;2.73;;;1.90;;
15474;SDS011;7839;50.462;9.678;2024-02-26T05:49:25;2.30;;;1.80;;
15474;SDS011;7839;50.462;9.678;2024-02-26T05:56:05;2.37;;;1.57;;
15474;SDS011;7839;50.462;9.678;2024-02-26T06:02:46;1.80;;;1.50;;
15474;SDS011;7839;50.462;9.678;2024-02-26T06:09:26;2.17;;;1.60;;
15474;SDS011;7839;50.462;9.678;2024-02-26T06:16:07;1.93;;;1.23;;
15474;SDS011;7839;50.462;9.678;2024-02-26T06:22:48;2.23;;;1.70;;
15474;SDS011;7839;50.462;9.678;2024-02-26T06:29:28;2.37;;;1.63;;
15474;SDS011;7839;50.462;9.678;2024-02-26T06:36:08;2.57;;;1.70;;
15474;SDS011;7839;50.462;9.678;2024-02-26T06:42:48;1.63;;;1.50;;
15474;SDS011;7839;50.462;9.678;2024-02-26T06:49:30;3.53;;;1.90;;
15474;SDS011;7839;50.462;9.678;2024-02-26T06:56:10;1.70;;;1.40;;
15474;SDS011;7839;50.462;9.678;2024-02-26T07:02:50;2.03;;;1.60;;
15474;SDS011;7839;50.462;9.678;2024-02-26T07:09:30;1.67;;;1.57;;
15474;SDS011;7839;50.462;9.678;2024-02-26T07:16:10;8.63;;;7.57;;
15474;SDS011;7839;50.462;9.678;2024-02-26T07:22:51;2.37;;;1.73;;
15474;SDS011;7839;50.462;9.678;2024-02-26T07:29:31;6.17;;;3.70;;
15474;SDS011;7839;50.462;9.678;2024-02-26T07:36:11;4.13;;;3.33;;
15474;SDS011;7839;50.462;9.678;2024-02-26T07:42:51;2.23;;;2.03;;
15474;SDS011;7839;50.462;9.678;2024-02-26T07:49:32;4.67;;;3.37;;
15474;SDS011;7839;50.462;9.678;2024-02-26T07:56:12;2.63;;;2.40;;
15474;SDS011;7839;50.462;9.678;2024-02-26T08:02:52;2.43;;;2.23;;
15474;SDS011;7839;50.462;9.678;2024-02-26T08:09:32;3.20;;;2.43;;
15474;SDS011;7839;50.462;9.678;2024-02-26T08:16:13;4.20;;;3.13;;
15474;SDS011;7839;50.462;9.678;2024-02-26T08:22:53;4.40;;;2.90;;
15474;SDS011;7839;50.462;9.678;2024-02-26T08:29:33;4.40;;;3.70;;
15474;SDS011;7839;50.462;9.678;2024-02-26T08:36:14;2.60;;;2.40;;
15474;SDS011;7839;50.462;9.678;2024-02-26T08:42:54;2.87;;;1.97;;
15474;SDS011;7839;50.462;9.678;2024-02-26T08:49:35;4.10;;;2.60;;
15474;SDS011;7839;50.462;9.678;2024-02-26T08:56:15;3.17;;;2.67;;
15474;SDS011;7839;50.462;9.678;2024-02-26T09:02:56;7.70;;;3.53;;
15474;SDS011;7839;50.462;9.678;2024-02-26T09:09:37;5.10;;;2.67;;
15474;SDS011;7839;50.462;9.678;2024-02-26T09:16:17;1.77;;;1.67;;
15474;SDS011;7839;50.462;9.678;2024-02-26T09:22:57;1.90;;;1.60;;
15474;SDS011;7839;50.462;9.678;2024-02-26T09:29:37;1.60;;;1.50;;
15474;SDS011;7839;50.462;9.678;2024-02-26T09:36:17;4.00;;;2.87;;
15474;SDS011;7839;50.462;9.678;2024-02-26T09:43:00;5.47;;;4.60;;
15474;SDS011;7839;50.462;9.678;2024-02-26T09:49:41;9.27;;;2.73;;
15474;SDS011;7839;50.462;9.678;2024-02-26T09:56:22;4.20;;;1.80;;
15474;SDS011;7839;50.462;9.678;2024-02-26T10:03:05;7.73;;;4.10;;
15474;SDS011;7839;50.462;9.678;2024-02-26T10:09:46;3.60;;;3.17;;
15474;SDS011;7839;50.462;9.678;2024-02-26T10:16:26;2.73;;;2.40;;
15474;SDS011;7839;50.462;9.678;2024-02-26T10:23:06;5.37;;;2.97;;
15474;SDS011;7839;50.462;9.678;2024-02-26T10:29:46;3.10;;;2.43;;
15474;SDS011;7839;50.462;9.678;2024-02-26T10:36:27;1.90;;;1.63;;
15474;SDS011;7839;50.462;9.678;2024-02-26T10:43:07;3.10;;;1.60;;
15474;SDS011;7839;50.462;9.678;2024-02-26T10:49:47;1.63;;;1.50;;
15474;SDS011;7839;50.462;9.678;2024-02-26T10:56:29;4.80;;;3.07;;
15474;SDS011;7839;50.462;9.678;2024-02-26T11:03:09;1.67;;;1.57;;
15474;SDS011;7839;50.462;9.678;2024-02-26T11:09:50;1.90;;;1.63;;
15474;SDS011;7839;50.462;9.678;2024-02-26T11:16:32;2.33;;;2.13;;
15474;SDS011;7839;50.462;9.678;2024-02-26T11:23:14;2.90;;;1.77;;
15474;SDS011;7839;50.462;9.678;2024-02-26T11:29:55;1.43;;;1.33;;
15474;SDS011;7839;50.462;9.678;2024-02-26T11:36:37;1.47;;;1.37;;
15474;SDS011;7839;50.462;9.678;2024-02-26T11:43:23;3.13;;;1.20;;
15474;SDS011;7839;50.462;9.678;2024-02-26T11:50:32;5.03;;;3.53;;
15474;SDS011;7839;50.462;9.678;2024-02-26T11:57:03;4.30;;;3.90;;
15474;SDS011;7839;50.462;9.678;2024-02-26T12:03:43;3.90;;;2.67;;
15474;SDS011;7839;50.462;9.678;2024-02-26T12:10:25;7.60;;;5.07;;
15474;SDS011;7839;50.462;9.678;2024-02-26T12:17:06;5.83;;;4.27;;
15474;SDS011;7839;50.462;9.678;2024-02-26T12:23:47;6.80;;;3.87;;
15474;SDS011;7839;50.462;9.678;2024-02-26T12:30:27;6.87;;;4.20;;
15474;SDS011;7839;50.462;9.678;2024-02-26T12:37:09;5.93;;;4.37;;
15474;SDS011;7839;50.462;9.678;2024-02-26T12:43:50;4.40;;;3.17;;
15474;SDS011;7839;50.462;9.678;2024-02-26T12:50:30;4.93;;;2.53;;
15474;SDS011;7839;50.462;9.678;2024-02-26T12:57:12;4.37;;;2.70;;
15474;SDS011;7839;50.462;9.678;2024-02-26T13:03:52;4.22;;;2.50;;
15474;SDS011;7839;50.462;9.678;2024-02-26T13:10:33;2.50;;;2.30;;
15474;SDS011;7839;50.462;9.678;2024-02-26T13:17:14;3.10;;;2.80;;
15474;SDS011;7839;50.462;9.678;2024-02-26T13:24:02;4.20;;;3.30;;
15474;SDS011;7839;50.462;9.678;2024-02-26T13:30:52;4.68;;;2.58;;
15474;SDS011;7839;50.462;9.678;2024-02-26T13:37:33;4.33;;;2.40;;
15474;SDS011;7839;50.462;9.678;2024-02-26T13:44:13;2.93;;;2.57;;
15474;SDS011;7839;50.462;9.678;2024-02-26T13:50:54;2.70;;;2.50;;
15474;SDS011;7839;50.462;9.678;2024-02-26T13:57:34;3.57;;;2.70;;
15474;SDS011;7839;50.462;9.678;2024-02-26T14:04:14;2.27;;;2.07;;
15474;SDS011;7839;50.462;9.678;2024-02-26T14:10:54;2.87;;;2.50;;
15474;SDS011;7839;50.462;9.678;2024-02-26T14:17:34;3.85;;;2.22;;
15474;SDS011;7839;50.462;9.678;2024-02-26T14:24:15;3.07;;;2.77;;
15474;SDS011;7839;50.462;9.678;2024-02-26T14:30:55;2.97;;;2.40;;
15474;SDS011;7839;50.462;9.678;2024-02-26T14:37:36;2.10;;;1.90;;
15474;SDS011;7839;50.462;9.678;2024-02-26T14:44:16;1.80;;;1.70;;
15474;SDS011;7839;50.462;9.678;2024-02-26T14:50:56;4.10;;;2.57;;
15474;SDS011;7839;50.462;9.678;2024-02-26T14:57:37;3.57;;;2.47;;
15474;SDS011;7839;50.462;9.678;2024-02-26T15:04:17;2.17;;;2.00;;
15474;SDS011;7839;50.462;9.678;2024-02-26T15:10:57;2.00;;;1.80;;
15474;SDS011;7839;50.462;9.678;2024-02-26T15:17:37;2.40;;;2.20;;
15474;SDS011;7839;50.462;9.678;2024-02-26T15:24:17;2.03;;;1.93;;
15474;SDS011;7839;50.462;9.678;2024-02-26T15:30:58;2.90;;;2.40;;
15474;SDS011;7839;50.462;9.678;2024-02-26T15:37:38;3.47;;;2.67;;
15474;SDS011;7839;50.462;9.678;2024-02-26T15:44:18;3.13;;;2.70;;
15474;SDS011;7839;50.462;9.678;2024-02-26T15:50:58;4.63;;;3.00;;
15474;SDS011;7839;50.462;9.678;2024-02-26T15:57:40;4.47;;;3.93;;
15474;SDS011;7839;50.462;9.678;2024-02-26T16:04:20;4.53;;;3.87;;
15474;SDS011;7839;50.462;9.678;2024-02-26T16:11:02;4.17;;;3.77;;
15474;SDS011;7839;50.462;9.678;2024-02-26T16:17:43;2.63;;;2.37;;
15474;SDS011;7839;50.462;9.678;2024-02-26T16:24:29;7.83;;;7.00;;
15474;SDS011;7839;50.462;9.678;2024-02-26T16:31:09;2.50;;;2.30;;
15474;SDS011;7839;50.462;9.678;2024-02-26T16:37:49;5.67;;;5.03;;
15474;SDS011;7839;50.462;9.678;2024-02-26T16:44:29;3.53;;;3.23;;
15474;SDS011;7839;50.462;9.678;2024-02-26T16:51:09;2.47;;;2.20;;
15474;SDS011;7839;50.462;9.678;2024-02-26T16:57:50;2.60;;;2.40;;
15474;SDS011;7839;50.462;9.678;2024-02-26T17:04:30;3.00;;;2.67;;
15474;SDS011;7839;50.462;9.678;2024-02-26T17:11:10;12.80;;;10.43;;
15474;SDS011;7839;50.462;9.678;2024-02-26T17:17:50;13.00;;;11.53;;
15474;SDS011;7839;50.462;9.678;2024-02-26T17:24:30;18.13;;;13.73;;
15474;SDS011;7839;50.462;9.678;2024-02-26T17:31:11;15.77;;;13.37;;
15474;SDS011;7839;50.462;9.678;2024-02-26T17:37:51;19.10;;;14.03;;
15474;SDS011;7839;50.462;9.678;2024-02-26T17:44:36;26.83;;;18.50;;
15474;SDS011;7839;50.462;9.678;2024-02-26T17:51:16;17.53;;;14.47;;
15474;SDS011;7839;50.462;9.678;2024-02-26T17:57:56;22.73;;;15.20;;
15474;SDS011;7839;50.462;9.678;2024-02-26T18:04:36;10.10;;;8.70;;
15474;SDS011;7839;50.462;9.678;2024-02-26T18:11:18;15.90;;;14.13;;
15474;SDS011;7839;50.462;9.678;2024-02-26T18:17:58;16.53;;;14.00;;
15474;SDS011;7839;50.462;9.678;2024-02-26T18:24:39;18.97;;;15.50;;
15474;SDS011;7839;50.462;9.678;2024-02-26T18:31:19;19.27;;;15.07;;
15474;SDS011;7839;50.462;9.678;2024-02-26T18:37:59;7.87;;;6.70;;
15474;SDS011;7839;50.462;9.678;2024-02-26T18:44:39;18.03;;;14.90;;
15474;SDS011;7839;50.462;9.678;2024-02-26T18:51:20;18.50;;;14.40;;
15474;SDS011;7839;50.462;9.678;2024-02-26T18:58:01;17.30;;;13.57;;
15474;SDS011;7839;50.462;9.678;2024-02-26T19:04:41;13.97;;;11.03;;
15474;SDS011;7839;50.462;9.678;2024-02-26T19:11:23;16.57;;;13.67;;
15474;SDS011;7839;50.462;9.678;2024-02-26T19:18:04;17.90;;;13.43;;
15474;SDS011;7839;50.462;9.678;2024-02-26T19:24:46;16.77;;;13.23;;
15474;SDS011;7839;50.462;9.678;2024-02-26T19:31:26;16.07;;;13.10;;
15474;SDS011;7839;50.462;9.678;2024-02-26T19:38:09;16.37;;;13.83;;
15474;SDS011;7839;50.462;9.678;2024-02-26T19:44:49;13.17;;;11.50;;
15474;SDS011;7839;50.462;9.678;2024-02-26T19:51:29;5.90;;;4.40;;
15474;SDS011;7839;50.462;9.678;2024-02-26T19:58:10;7.73;;;6.83;;
15474;SDS011;7839;50.462;9.678;2024-02-26T20:04:50;4.10;;;3.70;;
15474;SDS011;7839;50.462;9.678;2024-02-26T20:11:30;4.13;;;3.77;;
15474;SDS011;7839;50.462;9.678;2024-02-26T20:18:10;3.90;;;3.60;;
15474;SDS011;7839;50.462;9.678;2024-02-26T20:24:51;3.30;;;3.00;;
15474;SDS011;7839;50.462;9.678;2024-02-26T20:31:32;3.83;;;3.27;;
15474;SDS011;7839;50.462;9.678;2024-02-26T20:38:12;2.70;;;2.50;;
15474;SDS011;7839;50.462;9.678;2024-02-26T20:44:53;3.93;;;2.53;;
15474;SDS011;7839;50.462;9.678;2024-02-26T20:51:36;15.07;;;11.93;;
15474;SDS011;7839;50.462;9.678;2024-02-26T20:58:16;17.90;;;12.43;;
15474;SDS011;7839;50.462;9.678;2024-02-26T21:04:56;19.67;;;14.73;;
15474;SDS011;7839;50.462;9.678;2024-02-26T21:11:38;8.83;;;7.67;;
15474;SDS011;7839;50.462;9.678;2024-02-26T21:18:19;17.20;;;15.37;;
15474;SDS011;7839;50.462;9.678;2024-02-26T21:24:59;7.30;;;6.43;;
15474;SDS011;7839;50.462;9.678;2024-02-26T21:31:39;3.50;;;3.20;;
15474;SDS011;7839;50.462;9.678;2024-02-26T21:38:20;3.50;;;3.20;;
15474;SDS011;7839;50.462;9.678;2024-02-26T21:45:00;4.10;;;3.73;;
15474;SDS011;7839;50.462;9.678;2024-02-26T21:51:44;22.97;;;20.03;;
15474;SDS011;7839;50.462;9.678;2024-02-26T21:58:24;21.23;;;18.70;;
15474;SDS011;7839;50.462;9.678;2024-02-26T22:05:05;20.33;;;18.07;;
15474;SDS011;7839;50.462;9.678;2024-02-26T22:11:45;15.43;;;12.47;;
15474;SDS011;7839;50.462;9.678;2024-02-26T22:18:28;19.67;;;17.27;;
15474;SDS011;7839;50.462;9.678;2024-02-26T22:25:08;27.47;;;18.67;;
15474;SDS011;7839;50.462;9.678;2024-02-26T22:31:48;12.57;;;9.77;;
15474;SDS011;7839;50.462;9.678;2024-02-26T22:38:32;14.90;;;10.77;;
15474;SDS011;7839;50.462;9.678;2024-02-26T22:45:12;18.33;;;15.50;;
15474;SDS011;7839;50.462;9.678;2024-02-26T22:51:55;21.40;;;17.10;;
15474;SDS011;7839;50.462;9.678;2024-02-26T22:58:36;15.87;;;13.07;;
15474;SDS011;7839;50.462;9.678;2024-02-26T23:05:16;18.57;;;15.43;;
15474;SDS011;7839;50.462;9.678;2024-02-26T23:11:56;19.47;;;16.17;;
15474;SDS011;7839;50.462;9.678;2024-02-26T23:18:36;19.73;;;17.50;;
15474;SDS011;7839;50.462;9.678;2024-02-26T23:25:17;19.05;;;15.77;;
15474;SDS011;7839;50.462;9.678;2024-02-26T23:31:57;20.93;;;16.67;;
15474;SDS011;7839;50.462;9.678;2024-02-26T23:38:38;21.00;;;17.67;;
15474;SDS011;7839;50.462;9.678;2024-02-26T23:45:18;18.60;;;15.87;;
15474;SDS011;7839;50.462;9.678;2024-02-26T23:51:58;20.25;;;17.27;;
15474;SDS011;7839;50.462;9.678;2024-02-26T23:58:38;20.93;;;16.93;;
